Time;durP1;ratioP1;P1;durP2;ratioP2;P2;SDS_P1;SDS_P2;PMS_P1;PMS_P2;Temp;Humidity;BMP_temperature;BMP_pressure;BME280_temperature;BME280_humidity;BME280_pressure;Samples;Min_cycle;Max_cycle;Signal;HPM_P1;HPM_P2
2022/11/21 00:01:34;;;;;;;;;;;5.80;99.90;;;;;;5045941;28;20337;-65
2022/11/21 00:04:02;;;;;;;;;;;5.70;99.90;;;;;;5046881;28;19968;-65
2022/11/21 00:06:30;;;;;;;;;;;5.70;99.90;;;;;;5051359;28;19979;-65
2022/11/21 00:08:58;;;;;;;;;;;5.70;99.90;;;;;;5051568;28;19975;-65
2022/11/21 00:11:25;;;;;;;;;;;5.70;99.90;;;;;;5050667;28;20334;-65
2022/11/21 00:13:53;;;;;;;;;;;5.60;99.90;;;;;;5051732;28;20018;-65
2022/11/21 00:16:22;;;;;;;;;;;5.60;99.90;;;;;;5051198;28;19990;-66
2022/11/21 00:18:50;;;;;;;;;;;5.60;99.90;;;;;;5051490;28;19972;-65
2022/11/21 00:21:19;;;;;;;;;;;5.60;99.90;;;;;;5050555;28;20512;-65
2022/11/21 00:23:47;;;;;;;;;;;5.60;99.90;;;;;;5051436;28;19968;-64
2022/11/21 00:26:16;;;;;;;;;;;5.50;99.90;;;;;;5050820;28;20025;-65
2022/11/21 00:28:43;;;;;;;;;;;5.50;99.90;;;;;;5051656;28;19974;-65
2022/11/21 00:31:18;;;;;;;;;;;5.50;99.90;;;;;;5050255;28;19964;-64
2022/11/21 00:33:47;;;;;;;;;;;5.50;99.90;;;;;;5044387;28;19972;-64
2022/11/21 00:36:14;;;;;;;;;;;5.60;99.90;;;;;;5051255;28;20474;-64
2022/11/21 00:38:42;;;;;;;;;;;5.50;99.90;;;;;;5050995;28;20336;-64
2022/11/21 00:41:10;;;;;;;;;;;5.50;99.90;;;;;;5050445;28;19998;-65
2022/11/21 00:43:37;;;;;;;;;;;5.50;99.90;;;;;;5051214;28;19968;-65
2022/11/21 00:46:05;;;;;;;;;;;5.50;99.90;;;;;;5054062;28;19972;-65
2022/11/21 00:48:33;;;;;;;;;;;5.50;99.90;;;;;;5054898;28;20576;-66
2022/11/21 00:51:02;;;;;;;;;;;5.50;99.90;;;;;;5050058;28;19971;-65
2022/11/21 00:53:30;;;;;;;;;;;5.40;99.90;;;;;;5039959;28;20084;-63
2022/11/21 00:55:58;;;;;;;;;;;5.40;99.90;;;;;;5045277;28;20349;-66
2022/11/21 00:58:26;;;;;;;;;;;5.40;99.90;;;;;;5068653;28;20427;-65
2022/11/21 01:01:01;;;;;;;;;;;5.40;99.90;;;;;;5046523;28;20056;-65
2022/11/21 01:03:29;;;;;;;;;;;5.30;99.90;;;;;;5054094;28;19972;-66
2022/11/21 01:06:00;;;;;;;;;;;5.30;99.90;;;;;;5073386;28;20491;-65
2022/11/21 01:08:29;;;;;;;;;;;5.30;99.90;;;;;;5074554;28;20447;-64
2022/11/21 01:10:57;;;;;;;;;;;5.30;99.90;;;;;;5073524;28;19978;-65
2022/11/21 01:13:24;;;;;;;;;;;5.40;99.90;;;;;;5066937;28;19975;-65
2022/11/21 01:15:52;;;;;;;;;;;5.40;99.90;;;;;;5054104;28;19968;-65
2022/11/21 01:18:20;;;;;;;;;;;5.30;99.90;;;;;;5054161;28;19983;-65
2022/11/21 01:20:48;;;;;;;;;;;5.30;99.90;;;;;;5053311;28;19968;-66
2022/11/21 01:23:15;;;;;;;;;;;5.40;99.90;;;;;;5054169;28;20099;-66
2022/11/21 01:25:44;;;;;;;;;;;5.40;99.90;;;;;;5054237;28;20445;-65
2022/11/21 01:28:12;;;;;;;;;;;5.40;99.90;;;;;;5053972;28;20365;-66
2022/11/21 01:30:40;;;;;;;;;;;5.40;99.90;;;;;;5048946;28;20051;-65
2022/11/21 01:33:07;;;;;;;;;;;5.40;99.90;;;;;;5042386;28;20003;-65
2022/11/21 01:35:35;;;;;;;;;;;5.40;99.90;;;;;;5033836;28;19979;-65
2022/11/21 01:38:03;;;;;;;;;;;5.40;99.90;;;;;;5033905;28;19972;-65
2022/11/21 01:40:37;;;;;;;;;;;5.40;99.90;;;;;;5033370;28;19968;-66
2022/11/21 01:43:11;;;;;;;;;;;5.40;99.90;;;;;;5033726;28;20608;-65
2022/11/21 01:45:55;;;;;;;;;;;5.50;99.90;;;;;;5051669;28;19975;-64
2022/11/21 01:48:26;;;;;;;;;;;5.40;99.90;;;;;;5053702;28;19982;-65
2022/11/21 01:50:54;;;;;;;;;;;5.40;99.90;;;;;;5052915;28;20377;-65
2022/11/21 01:53:22;;;;;;;;;;;5.40;99.90;;;;;;5053620;28;19968;-65
2022/11/21 01:55:50;;;;;;;;;;;5.40;99.90;;;;;;5052851;28;19969;-65
2022/11/21 01:58:20;;;;;;;;;;;5.40;99.90;;;;;;5053526;28;20372;-66
2022/11/21 02:00:48;;;;;;;;;;;5.40;99.90;;;;;;5052553;28;20467;-65
2022/11/21 02:03:19;;;;;;;;;;;5.40;99.90;;;;;;5044890;28;19999;-65
2022/11/21 02:05:47;;;;;;;;;;;5.40;99.90;;;;;;5053174;28;20104;-65
2022/11/21 02:08:17;;;;;;;;;;;5.40;99.90;;;;;;5052992;28;19974;-65
2022/11/21 02:10:47;;;;;;;;;;;5.40;99.90;;;;;;5052595;28;20007;-65
2022/11/21 02:13:16;;;;;;;;;;;5.40;99.90;;;;;;5053111;28;20418;-65
2022/11/21 02:15:45;;;;;;;;;;;5.50;99.90;;;;;;5052914;28;19968;-64
2022/11/21 02:18:12;;;;;;;;;;;5.50;99.90;;;;;;5053012;28;20501;-64
2022/11/21 02:20:42;;;;;;;;;;;5.50;99.90;;;;;;5052019;28;19974;-65
2022/11/21 02:23:13;;;;;;;;;;;5.60;99.90;;;;;;5053017;28;19968;-65
2022/11/21 02:25:43;;;;;;;;;;;5.50;99.90;;;;;;5053019;28;19975;-64
2022/11/21 02:28:12;;;;;;;;;;;5.50;99.90;;;;;;5052769;28;19972;-65
2022/11/21 02:30:40;;;;;;;;;;;5.60;99.90;;;;;;5052023;28;19964;-64
2022/11/21 02:33:09;;;;;;;;;;;5.60;99.90;;;;;;5044478;28;20070;-65
2022/11/21 02:35:36;;;;;;;;;;;5.50;99.90;;;;;;5052653;28;19972;-65
2022/11/21 02:38:06;;;;;;;;;;;5.50;99.90;;;;;;5052586;28;19972;-64
2022/11/21 02:40:36;;;;;;;;;;;5.40;99.90;;;;;;5052154;28;19978;-65
2022/11/21 02:43:07;;;;;;;;;;;5.40;99.90;;;;;;5052750;28;19972;-64
2022/11/21 02:45:36;;;;;;;;;;;5.30;99.90;;;;;;5052421;28;20063;-64
2022/11/21 02:48:05;;;;;;;;;;;5.20;99.90;;;;;;5052356;28;19969;-64
2022/11/21 02:50:33;;;;;;;;;;;5.10;99.90;;;;;;5051839;28;20360;-64
2022/11/21 02:53:01;;;;;;;;;;;5.10;99.90;;;;;;5052535;28;19968;-64
2022/11/21 02:55:29;;;;;;;;;;;5.10;99.90;;;;;;5052298;28;19975;-65
2022/11/21 02:57:58;;;;;;;;;;;4.90;99.90;;;;;;5050648;28;20077;-66
2022/11/21 03:00:33;;;;;;;;;;;5.00;99.90;;;;;;5051422;28;19968;-66
2022/11/21 03:03:01;;;;;;;;;;;4.90;99.90;;;;;;5044112;28;19974;-66
2022/11/21 03:05:29;;;;;;;;;;;4.80;99.90;;;;;;5052247;28;19968;-66
2022/11/21 03:07:57;;;;;;;;;;;4.80;99.90;;;;;;5051882;28;19978;-66
2022/11/21 03:10:24;;;;;;;;;;;4.80;99.90;;;;;;5051610;28;19976;-66
2022/11/21 03:12:59;;;;;;;;;;;4.80;99.90;;;;;;5052030;28;20509;-65
2022/11/21 03:15:28;;;;;;;;;;;4.80;99.90;;;;;;5052261;28;20066;-65
2022/11/21 03:17:57;;;;;;;;;;;4.80;99.90;;;;;;5051831;28;19982;-65
2022/11/21 03:20:25;;;;;;;;;;;4.90;99.90;;;;;;5051527;28;19975;-65
2022/11/21 03:22:52;;;;;;;;;;;4.90;99.90;;;;;;5052259;28;20341;-64
2022/11/21 03:25:20;;;;;;;;;;;5.00;99.90;;;;;;5052763;28;19978;-64
2022/11/21 03:27:50;;;;;;;;;;;5.00;99.90;;;;;;5052188;28;20508;-65
2022/11/21 03:30:18;;;;;;;;;;;5.00;99.90;;;;;;5050887;28;20473;-65
2022/11/21 03:32:45;;;;;;;;;;;5.00;99.90;;;;;;5043575;28;20499;-65
2022/11/21 03:35:15;;;;;;;;;;;5.10;99.90;;;;;;5051952;28;20011;-65
2022/11/21 03:37:43;;;;;;;;;;;5.10;99.90;;;;;;5051467;28;19968;-66
2022/11/21 03:40:11;;;;;;;;;;;5.10;99.90;;;;;;5051071;28;20450;-67
2022/11/21 03:42:39;;;;;;;;;;;5.20;99.90;;;;;;5051763;28;19975;-66
2022/11/21 03:45:07;;;;;;;;;;;5.20;99.90;;;;;;5051793;28;19976;-65
2022/11/21 03:47:35;;;;;;;;;;;5.20;99.90;;;;;;5051190;28;20345;-66
2022/11/21 03:50:03;;;;;;;;;;;5.30;99.90;;;;;;5051076;28;19976;-64
2022/11/21 03:52:32;;;;;;;;;;;5.30;99.90;;;;;;5051588;28;19968;-65
2022/11/21 03:55:00;;;;;;;;;;;5.30;99.90;;;;;;5051806;28;19978;-66
2022/11/21 03:57:27;;;;;;;;;;;5.30;99.90;;;;;;5051414;28;19968;-65
2022/11/21 03:59:55;;;;;;;;;;;5.30;99.90;;;;;;5050873;28;19975;-65
2022/11/21 04:02:23;;;;;;;;;;;5.30;99.90;;;;;;5043073;28;20055;-65
2022/11/21 04:04:50;;;;;;;;;;;5.40;99.90;;;;;;5051311;28;19967;-66
2022/11/21 04:07:18;;;;;;;;;;;5.40;99.90;;;;;;5051519;28;19972;-66
2022/11/21 04:09:47;;;;;;;;;;;5.40;99.90;;;;;;5050873;28;19975;-65
2022/11/21 04:12:15;;;;;;;;;;;5.40;99.90;;;;;;5051538;28;20067;-65
2022/11/21 04:14:43;;;;;;;;;;;5.40;99.90;;;;;;5051429;28;20491;-66
2022/11/21 04:17:10;;;;;;;;;;;5.40;99.90;;;;;;5051045;28;20352;-65
2022/11/21 04:19:38;;;;;;;;;;;5.40;99.90;;;;;;5051561;28;19972;-65
2022/11/21 04:22:06;;;;;;;;;;;5.50;99.90;;;;;;5055322;28;20070;-65
2022/11/21 04:24:34;;;;;;;;;;;5.50;99.90;;;;;;5055354;28;19974;-65
2022/11/21 04:27:03;;;;;;;;;;;5.50;99.90;;;;;;5054835;28;19968;-65
2022/11/21 04:29:30;;;;;;;;;;;5.50;99.90;;;;;;5054767;28;19974;-65
2022/11/21 04:31:58;;;;;;;;;;;5.50;99.90;;;;;;5052291;28;20050;-66
2022/11/21 04:34:26;;;;;;;;;;;5.50;99.90;;;;;;5052928;28;19968;-65
2022/11/21 04:36:54;;;;;;;;;;;5.60;99.90;;;;;;5048954;28;19968;-65
2022/11/21 04:39:22;;;;;;;;;;;5.50;99.90;;;;;;5054902;28;19975;-65
2022/11/21 04:41:49;;;;;;;;;;;5.50;99.90;;;;;;5054383;28;20441;-65
2022/11/21 04:44:18;;;;;;;;;;;5.60;99.90;;;;;;5054965;28;20162;-65
2022/11/21 04:46:46;;;;;;;;;;;5.60;99.90;;;;;;5054579;28;20322;-65
2022/11/21 04:49:14;;;;;;;;;;;5.60;99.90;;;;;;5054640;28;20349;-65
2022/11/21 04:51:42;;;;;;;;;;;5.50;99.90;;;;;;5054085;28;19974;-65
2022/11/21 04:54:10;;;;;;;;;;;5.50;99.90;;;;;;5054669;28;20455;-65
2022/11/21 04:56:38;;;;;;;;;;;5.50;99.90;;;;;;5054724;28;19984;-65
2022/11/21 04:59:06;;;;;;;;;;;5.50;99.90;;;;;;5054415;28;20054;-65
2022/11/21 05:01:37;;;;;;;;;;;5.50;99.90;;;;;;5050489;28;19971;-64
2022/11/21 05:04:05;;;;;;;;;;;5.50;99.90;;;;;;5050118;28;19968;-65
2022/11/21 05:06:32;;;;;;;;;;;5.50;99.90;;;;;;5054612;28;20031;-65
2022/11/21 05:09:01;;;;;;;;;;;5.50;99.90;;;;;;5054199;28;20449;-65
2022/11/21 05:14:14;;;;;;;;;;;5.60;99.90;;;;;;5054595;28;20054;-65
2022/11/21 05:16:43;;;;;;;;;;;5.60;99.90;;;;;;5054062;28;20456;-65
2022/11/21 05:19:11;;;;;;;;;;;5.60;99.90;;;;;;5054163;28;19991;-66
2022/11/21 05:21:39;;;;;;;;;;;5.60;99.90;;;;;;5053435;28;20663;-64
2022/11/21 05:24:07;;;;;;;;;;;5.70;99.90;;;;;;5054098;28;19968;-65
2022/11/21 05:26:36;;;;;;;;;;;5.60;99.90;;;;;;5044871;28;20346;-65
2022/11/21 05:29:04;;;;;;;;;;;5.60;99.90;;;;;;5037849;28;19965;-65
2022/11/21 05:31:32;;;;;;;;;;;5.60;99.90;;;;;;5038881;28;19972;-65
2022/11/21 05:34:01;;;;;;;;;;;5.60;99.90;;;;;;5050430;28;19972;-64
2022/11/21 05:36:29;;;;;;;;;;;5.70;99.90;;;;;;5047249;28;19968;-65
2022/11/21 05:38:57;;;;;;;;;;;5.60;99.90;;;;;;5039770;28;19971;-66
2022/11/21 05:41:24;;;;;;;;;;;5.70;99.90;;;;;;5042594;28;20345;-66
2022/11/21 05:43:51;;;;;;;;;;;5.70;99.90;;;;;;5028403;28;19973;-65
2022/11/21 05:46:20;;;;;;;;;;;5.70;99.90;;;;;;5027787;28;20008;-66
2022/11/21 05:48:48;;;;;;;;;;;5.80;99.90;;;;;;5025621;28;19972;-67
2022/11/21 05:51:18;;;;;;;;;;;5.70;99.90;;;;;;5025291;28;19965;-66
2022/11/21 05:53:46;;;;;;;;;;;5.70;99.90;;;;;;5027517;28;19965;-67
2022/11/21 05:56:15;;;;;;;;;;;5.70;99.90;;;;;;5026756;28;19970;-66
2022/11/21 05:58:43;;;;;;;;;;;5.70;99.90;;;;;;5029995;28;20315;-66
2022/11/21 06:01:13;;;;;;;;;;;5.70;99.90;;;;;;5024904;28;20015;-66
2022/11/21 06:03:40;;;;;;;;;;;5.80;99.90;;;;;;5024384;28;19972;-66
2022/11/21 06:06:09;;;;;;;;;;;5.80;99.90;;;;;;5029481;28;19998;-67
2022/11/21 06:08:39;;;;;;;;;;;5.90;99.90;;;;;;5026476;28;19973;-67
2022/11/21 06:11:07;;;;;;;;;;;5.90;99.90;;;;;;5026827;28;19972;-66
2022/11/21 06:13:35;;;;;;;;;;;5.90;99.90;;;;;;5029422;28;19976;-65
2022/11/21 06:16:04;;;;;;;;;;;5.90;99.90;;;;;;5029124;28;19972;-68
2022/11/21 06:18:32;;;;;;;;;;;6.00;99.90;;;;;;5028521;28;20150;-66
2022/11/21 06:21:01;;;;;;;;;;;6.00;99.90;;;;;;5034722;28;19973;-65
2022/11/21 06:23:28;;;;;;;;;;;6.00;99.90;;;;;;5036594;28;19976;-65
2022/11/21 06:25:59;;;;;;;;;;;5.90;99.90;;;;;;4994101;28;1765692;-66
2022/11/21 06:28:27;;;;;;;;;;;5.90;99.90;;;;;;5024421;28;20013;-65
2022/11/21 06:30:54;;;;;;;;;;;5.80;99.90;;;;;;5025497;28;19972;-64
2022/11/21 06:33:22;;;;;;;;;;;5.90;99.90;;;;;;5028671;28;20019;-65
2022/11/21 06:35:50;;;;;;;;;;;5.80;99.90;;;;;;5035532;28;19982;-66
2022/11/21 06:38:18;;;;;;;;;;;5.80;99.90;;;;;;5027569;28;19964;-67
2022/11/21 06:40:46;;;;;;;;;;;5.80;99.90;;;;;;5027168;28;20945;-66
2022/11/21 06:43:15;;;;;;;;;;;5.90;99.90;;;;;;5025960;28;19968;-65
2022/11/21 06:45:43;;;;;;;;;;;5.90;99.90;;;;;;5025066;28;19968;-65
2022/11/21 06:48:10;;;;;;;;;;;6.00;99.90;;;;;;5027199;28;20487;-66
2022/11/21 06:50:38;;;;;;;;;;;6.00;99.90;;;;;;5025228;28;20436;-68
2022/11/21 06:53:06;;;;;;;;;;;5.90;99.90;;;;;;5035334;28;20411;-65
2022/11/21 06:55:33;;;;;;;;;;;6.00;99.90;;;;;;5035170;28;19972;-66
2022/11/21 06:58:01;;;;;;;;;;;5.90;99.90;;;;;;5026406;28;20646;-65
2022/11/21 07:00:30;;;;;;;;;;;6.00;99.90;;;;;;5031432;28;19999;-64
2022/11/21 07:02:59;;;;;;;;;;;6.10;99.90;;;;;;5028934;28;19972;-64
2022/11/21 07:05:30;;;;;;;;;;;6.10;99.90;;;;;;5024802;28;20495;-64
2022/11/21 07:07:59;;;;;;;;;;;6.20;99.90;;;;;;5028554;28;20002;-65
2022/11/21 07:10:26;;;;;;;;;;;6.20;99.90;;;;;;5025271;28;19976;-68
2022/11/21 07:15:43;;;;;;;;;;;6.20;99.90;;;;;;5026846;28;19979;-66
2022/11/21 07:18:10;;;;;;;;;;;6.10;99.90;;;;;;5024356;28;19972;-66
2022/11/21 07:20:38;;;;;;;;;;;6.10;99.90;;;;;;5026651;28;20871;-67
2022/11/21 07:23:06;;;;;;;;;;;6.10;99.90;;;;;;5026372;28;19972;-68
2022/11/21 07:25:34;;;;;;;;;;;6.20;99.90;;;;;;5032350;28;20425;-64
2022/11/21 07:28:04;;;;;;;;;;;6.20;99.90;;;;;;5041936;28;19964;-64
2022/11/21 07:30:31;;;;;;;;;;;6.30;99.90;;;;;;5066637;22;19964;-61
2022/11/21 07:33:01;;;;;;;;;;;6.30;99.90;;;;;;5050437;28;19964;-61
2022/11/21 07:35:29;;;;;;;;;;;6.30;99.90;;;;;;5050105;28;19968;-61
2022/11/21 07:37:57;;;;;;;;;;;6.30;99.90;;;;;;5051559;28;20451;-62
2022/11/21 07:40:25;;;;;;;;;;;6.40;99.90;;;;;;5050997;28;19968;-61
2022/11/21 07:42:53;;;;;;;;;;;6.40;99.90;;;;;;5051469;28;20475;-61
2022/11/21 07:45:20;;;;;;;;;;;6.40;99.90;;;;;;5051804;28;19972;-61
2022/11/21 07:47:56;;;;;;;;;;;6.40;99.90;;;;;;5051272;28;20445;-61
2022/11/21 07:50:25;;;;;;;;;;;6.40;99.90;;;;;;5051081;28;19974;-61
2022/11/21 07:52:56;;;;;;;;;;;6.50;99.90;;;;;;5051592;28;20002;-61
2022/11/21 07:55:24;;;;;;;;;;;6.50;99.90;;;;;;5053604;28;19974;-61
2022/11/21 07:57:59;;;;;;;;;;;6.50;99.90;;;;;;5055725;28;20421;-61
2022/11/21 08:00:28;;;;;;;;;;;6.50;99.90;;;;;;5054904;28;19972;-61
2022/11/21 08:02:55;;;;;;;;;;;6.50;99.90;;;;;;5055216;28;19964;-61
2022/11/21 08:05:23;;;;;;;;;;;6.50;99.90;;;;;;5055349;28;20058;-61
2022/11/21 08:07:52;;;;;;;;;;;6.50;99.90;;;;;;5055207;28;19968;-61
2022/11/21 08:10:20;;;;;;;;;;;6.60;99.90;;;;;;5054700;28;20429;-62
2022/11/21 08:12:48;;;;;;;;;;;6.60;99.90;;;;;;5055489;28;20480;-62
2022/11/21 08:15:16;;;;;;;;;;;6.60;99.90;;;;;;5054896;28;20067;-61
2022/11/21 08:17:44;;;;;;;;;;;6.60;99.90;;;;;;5055214;28;19974;-61
2022/11/21 08:20:12;;;;;;;;;;;6.70;99.90;;;;;;5054458;28;19969;-62
2022/11/21 08:22:40;;;;;;;;;;;6.80;99.90;;;;;;5055136;28;19972;-62
2022/11/21 08:25:10;;;;;;;;;;;6.90;99.90;;;;;;5055034;28;19972;-62
2022/11/21 08:27:38;;;;;;;;;;;6.90;99.90;;;;;;5055088;28;19968;-62
2022/11/21 08:30:06;;;;;;;;;;;6.90;99.90;;;;;;5054317;28;19968;-61
2022/11/21 08:32:34;;;;;;;;;;;7.00;99.90;;;;;;5054577;28;20070;-61
2022/11/21 08:35:01;;;;;;;;;;;7.10;99.90;;;;;;5054953;28;20015;-62
2022/11/21 08:37:29;;;;;;;;;;;7.10;99.90;;;;;;5055130;28;19974;-61
2022/11/21 08:39:59;;;;;;;;;;;7.10;99.90;;;;;;5054219;28;19968;-61
2022/11/21 08:42:28;;;;;;;;;;;7.20;99.90;;;;;;5054526;28;19972;-61
2022/11/21 08:44:56;;;;;;;;;;;7.20;99.90;;;;;;5054843;28;19972;-60
2022/11/21 08:47:24;;;;;;;;;;;7.20;99.90;;;;;;5054527;28;19972;-62
2022/11/21 08:49:51;;;;;;;;;;;7.20;99.90;;;;;;5053973;28;20364;-61
2022/11/21 08:52:19;;;;;;;;;;;7.20;99.90;;;;;;5054831;28;19979;-61
2022/11/21 08:54:47;;;;;;;;;;;7.20;99.90;;;;;;5054573;28;19974;-61
2022/11/21 08:57:15;;;;;;;;;;;7.20;99.90;;;;;;5054766;28;19975;-61
2022/11/21 08:59:44;;;;;;;;;;;7.30;99.90;;;;;;5053426;28;20470;-61
2022/11/21 09:02:11;;;;;;;;;;;7.20;99.90;;;;;;5054092;28;19970;-61
2022/11/21 09:04:39;;;;;;;;;;;7.20;99.90;;;;;;5034426;28;19973;-62
2022/11/21 09:07:07;;;;;;;;;;;7.10;99.90;;;;;;5034210;28;20438;-62
2022/11/21 09:09:35;;;;;;;;;;;7.10;99.90;;;;;;5033568;28;19980;-61
2022/11/21 09:12:02;;;;;;;;;;;7.10;99.90;;;;;;5034207;28;20445;-62
2022/11/21 09:20:02;;;;;;;;;;;7.60;99.90;;;;;;5033395;28;19976;-62
2022/11/21 09:22:30;;;;;;;;;;;7.80;99.90;;;;;;5034183;28;19968;-62
2022/11/21 09:24:58;;;;;;;;;;;7.70;99.90;;;;;;5033983;28;19972;-62
2022/11/21 09:27:26;;;;;;;;;;;8.00;99.90;;;;;;5034235;28;19972;-62
2022/11/21 09:29:54;;;;;;;;;;;8.30;99.90;;;;;;5037746;28;20236;-61
2022/11/21 09:32:23;;;;;;;;;;;8.70;99.90;;;;;;5053211;28;19964;-62
2022/11/21 09:34:51;;;;;;;;;;;9.10;99.90;;;;;;5053858;28;19969;-62
2022/11/21 09:37:18;;;;;;;;;;;9.60;99.90;;;;;;5053519;28;19982;-61
2022/11/21 09:39:46;;;;;;;;;;;10.00;99.90;;;;;;5053059;28;20421;-62
2022/11/21 09:42:33;;;;;;;;;;;10.40;99.90;;;;;;5053685;28;20433;-62
2022/11/21 09:45:06;;;;;;;;;;;10.80;99.90;;;;;;5053591;28;20062;-62
2022/11/21 09:47:47;;;;;;;;;;;10.90;99.90;;;;;;5053519;28;19968;-62
2022/11/21 09:50:24;;;;;;;;;;;11.30;99.90;;;;;;5052978;28;19968;-62
2022/11/21 09:52:55;;;;;;;;;;;11.20;99.90;;;;;;5053775;28;19972;-62
2022/11/21 09:55:27;;;;;;;;;;;11.00;99.90;;;;;;5053568;28;20018;-62
2022/11/21 09:57:55;;;;;;;;;;;10.50;99.90;;;;;;5053547;28;19987;-62
2022/11/21 10:00:24;;;;;;;;;;;9.80;99.90;;;;;;5052586;28;20337;-62
2022/11/21 10:02:54;;;;;;;;;;;9.70;99.90;;;;;;5053288;28;19964;-61
2022/11/21 10:05:25;;;;;;;;;;;9.80;99.90;;;;;;5053164;28;19968;-62
2022/11/21 10:07:53;;;;;;;;;;;10.20;99.90;;;;;;5053489;28;20452;-62
2022/11/21 10:10:27;;;;;;;;;;;10.20;99.90;;;;;;5052393;28;20353;-62
2022/11/21 10:13:02;;;;;;;;;;;10.00;99.90;;;;;;5053115;28;19972;-61
2022/11/21 10:15:36;;;;;;;;;;;9.90;99.90;;;;;;5053169;28;19982;-62
2022/11/21 10:18:20;;;;;;;;;;;9.80;99.90;;;;;;5052273;28;20018;-62
2022/11/21 10:20:54;;;;;;;;;;;9.80;99.90;;;;;;5052245;28;20462;-62
2022/11/21 10:23:32;;;;;;;;;;;10.20;99.90;;;;;;5052894;28;19983;-62
2022/11/21 10:26:07;;;;;;;;;;;10.60;99.90;;;;;;5052944;28;19972;-61
2022/11/21 10:28:38;;;;;;;;;;;10.80;99.90;;;;;;5052851;28;19975;-62
2022/11/21 10:31:08;;;;;;;;;;;11.30;99.90;;;;;;5048495;28;20321;-62
2022/11/21 10:33:39;;;;;;;;;;;11.50;99.90;;;;;;5052352;28;19965;-62
2022/11/21 10:36:09;;;;;;;;;;;11.60;99.90;;;;;;5052584;28;19964;-62
2022/11/21 10:38:37;;;;;;;;;;;11.30;99.90;;;;;;5052601;28;19968;-62
2022/11/21 10:41:06;;;;;;;;;;;10.80;99.90;;;;;;5051492;28;19978;-62
2022/11/21 10:46:21;;;;;;;;;;;10.30;99.90;;;;;;5052375;28;20448;-62
2022/11/21 10:48:55;;;;;;;;;;;10.20;99.90;;;;;;5052475;28;20054;-62
2022/11/21 10:51:27;;;;;;;;;;;10.30;99.90;;;;;;5051341;28;19972;-62
2022/11/21 10:56:56;;;;;;;;;;;10.30;99.90;;;;;;5052387;28;19975;-61
2022/11/21 10:59:25;;;;;;;;;;;10.40;99.90;;;;;;5052192;28;19979;-63
2022/11/21 11:01:59;;;;;;;;;;;10.40;99.90;;;;;;5051722;28;19964;-62
2022/11/21 11:04:29;;;;;;;;;;;10.30;99.90;;;;;;5051682;28;19968;-62
2022/11/21 11:07:22;;;;;;;;;;;10.30;99.90;;;;;;5052287;28;20329;-62
2022/11/21 11:09:51;;;;;;;;;;;10.10;99.90;;;;;;5051389;28;20021;-61
2022/11/21 11:12:23;;;;;;;;;;;9.70;99.90;;;;;;5051598;28;20063;-61
2022/11/21 11:14:52;;;;;;;;;;;9.60;99.90;;;;;;5051892;28;19982;-61
2022/11/21 11:17:26;;;;;;;;;;;9.50;99.90;;;;;;5051965;28;19969;-61
2022/11/21 11:20:02;;;;;;;;;;;9.30;99.90;;;;;;5051268;28;19972;-62
2022/11/21 11:22:30;;;;;;;;;;;9.10;99.90;;;;;;5051737;28;19976;-62
2022/11/21 11:24:58;;;;;;;;;;;9.00;99.90;;;;;;5051814;28;20445;-61
2022/11/21 11:27:28;;;;;;;;;;;8.70;99.90;;;;;;5051760;28;19982;-61
2022/11/21 11:29:56;;;;;;;;;;;8.60;99.90;;;;;;5050930;28;19972;-61
2022/11/21 11:32:24;;;;;;;;;;;8.60;99.90;;;;;;5051037;28;19968;-61
2022/11/21 11:34:57;;;;;;;;;;;8.60;99.90;;;;;;5051654;28;20054;-61
2022/11/21 11:37:35;;;;;;;;;;;8.60;99.90;;;;;;5051610;28;19968;-62
2022/11/21 11:40:14;;;;;;;;;;;8.60;99.90;;;;;;5050925;28;19978;-62
2022/11/21 11:48:58;;;;;;;;;;;8.50;99.90;;;;;;5009825;28;19968;-62
2022/11/21 11:51:47;;;;;;;;;;;8.50;99.90;;;;;;5042896;28;19971;-62
2022/11/21 11:54:18;;;;;;;;;;;8.40;99.90;;;;;;5051392;28;20345;-61
2022/11/21 11:56:46;;;;;;;;;;;8.30;99.90;;;;;;5051597;28;19991;-62
2022/11/21 11:59:17;;;;;;;;;;;8.30;99.90;;;;;;5051724;28;20030;-61
2022/11/21 12:01:49;;;;;;;;;;;8.30;99.90;;;;;;5050624;28;20322;-61
2022/11/21 12:04:17;;;;;;;;;;;8.20;99.90;;;;;;5051622;28;19980;-61
2022/11/21 12:06:48;;;;;;;;;;;8.30;99.90;;;;;;5051516;28;19974;-62
2022/11/21 12:09:39;;;;;;;;;;;8.30;99.90;;;;;;5050980;28;20249;-60
2022/11/21 12:12:10;;;;;;;;;;;8.50;99.90;;;;;;5051331;28;19968;-62
2022/11/21 12:17:35;;;;;;;;;;;9.10;99.90;;;;;;5051173;28;19991;-61
2022/11/21 12:20:05;;;;;;;;;;;9.60;99.90;;;;;;5050880;28;19979;-61
2022/11/21 12:22:33;;;;;;;;;;;9.90;99.90;;;;;;5051414;28;20342;-62
2022/11/21 12:25:02;;;;;;;;;;;10.00;99.90;;;;;;5051013;28;19969;-62
2022/11/21 12:27:31;;;;;;;;;;;10.20;99.90;;;;;;5051162;28;19968;-61
2022/11/21 12:30:08;;;;;;;;;;;10.20;99.90;;;;;;5050521;28;20349;-61
2022/11/21 12:32:44;;;;;;;;;;;10.30;99.90;;;;;;5011325;28;19987;-62
2022/11/21 12:35:20;;;;;;;;;;;10.30;99.90;;;;;;5011354;28;20454;-61
2022/11/21 12:37:49;;;;;;;;;;;10.00;99.90;;;;;;5011581;28;20165;-62
2022/11/21 12:40:28;;;;;;;;;;;9.90;99.90;;;;;;5011137;28;20414;-62
2022/11/21 12:43:01;;;;;;;;;;;9.80;99.90;;;;;;5015225;28;19975;-62
2022/11/21 12:45:31;;;;;;;;;;;9.70;99.90;;;;;;5015023;28;19973;-62
2022/11/21 12:56:49;;;;;;;;;;;9.50;99.90;;;;;;5013739;28;19979;-62
2022/11/21 12:59:18;;;;;;;;;;;9.40;99.90;;;;;;5014880;28;19977;-61
2022/11/21 13:01:50;;;;;;;;;;;9.40;99.90;;;;;;5013958;28;20446;-62
2022/11/21 13:04:21;;;;;;;;;;;9.40;99.90;;;;;;5014724;28;19965;-62
2022/11/21 13:06:49;;;;;;;;;;;9.50;99.90;;;;;;5014412;28;20443;-61
2022/11/21 13:09:18;;;;;;;;;;;9.50;99.90;;;;;;5014541;28;20412;-62
2022/11/21 13:12:00;;;;;;;;;;;9.40;99.90;;;;;;5013927;28;20006;-62
2022/11/21 13:14:35;;;;;;;;;;;9.20;99.90;;;;;;5014631;28;19974;-62
2022/11/21 13:17:06;;;;;;;;;;;9.10;99.90;;;;;;5014359;28;19979;-62
2022/11/21 13:19:36;;;;;;;;;;;9.00;99.90;;;;;;5013904;28;20504;-60
2022/11/21 13:22:04;;;;;;;;;;;8.90;99.90;;;;;;5014355;28;19979;-62
2022/11/21 13:24:50;;;;;;;;;;;9.00;99.90;;;;;;5014501;28;19973;-62
2022/11/21 13:27:30;;;;;;;;;;;8.80;99.90;;;;;;5014060;28;19982;-62
2022/11/21 13:30:19;;;;;;;;;;;8.80;99.90;;;;;;5013567;28;19975;-62
2022/11/21 13:32:47;;;;;;;;;;;8.80;99.90;;;;;;5054524;28;20463;-62
2022/11/21 13:35:35;;;;;;;;;;;8.80;99.90;;;;;;5053548;28;19968;-62
2022/11/21 13:38:03;;;;;;;;;;;8.80;99.90;;;;;;5053772;28;19972;-62
2022/11/21 13:40:35;;;;;;;;;;;8.80;99.90;;;;;;5053015;28;19974;-62
2022/11/21 13:43:21;;;;;;;;;;;8.70;99.90;;;;;;5053991;28;19972;-62
2022/11/21 13:46:01;;;;;;;;;;;8.70;99.90;;;;;;5053580;28;20066;-62
2022/11/21 13:48:37;;;;;;;;;;;8.70;99.90;;;;;;5053640;28;20075;-62
2022/11/21 13:51:14;;;;;;;;;;;8.70;99.90;;;;;;5052771;28;20063;-61
2022/11/21 13:53:52;;;;;;;;;;;8.70;99.90;;;;;;5052823;28;19968;-61
2022/11/21 13:56:28;;;;;;;;;;;8.70;99.90;;;;;;5053682;28;19979;-61
2022/11/21 13:59:04;;;;;;;;;;;8.70;99.90;;;;;;5053540;28;20026;-62
2022/11/21 14:01:50;;;;;;;;;;;8.60;99.90;;;;;;5052454;28;19991;-62
2022/11/21 14:04:24;;;;;;;;;;;8.60;99.90;;;;;;5053247;28;19968;-62
2022/11/21 14:06:52;;;;;;;;;;;8.50;99.90;;;;;;5053020;28;19978;-62
2022/11/21 14:09:24;;;;;;;;;;;8.50;99.90;;;;;;5053228;28;20006;-62
2022/11/21 14:11:54;;;;;;;;;;;8.50;99.90;;;;;;5052824;28;19972;-62
2022/11/21 14:14:25;;;;;;;;;;;8.60;99.90;;;;;;5053226;28;19975;-62
2022/11/21 14:16:56;;;;;;;;;;;8.60;99.90;;;;;;5053010;28;20081;-61
2022/11/21 14:19:25;;;;;;;;;;;8.70;99.90;;;;;;5053102;28;19972;-62
2022/11/21 14:21:54;;;;;;;;;;;8.70;99.90;;;;;;5052432;28;20403;-62
2022/11/21 14:24:21;;;;;;;;;;;8.80;99.90;;;;;;5052842;28;19968;-62
2022/11/21 14:26:50;;;;;;;;;;;8.80;99.90;;;;;;5052836;28;19968;-62
2022/11/21 14:29:21;;;;;;;;;;;8.80;99.90;;;;;;5052861;28;19975;-62
2022/11/21 14:31:50;;;;;;;;;;;8.70;99.90;;;;;;5051763;28;19971;-62
2022/11/21 14:34:25;;;;;;;;;;;8.70;99.90;;;;;;5052602;28;19971;-61
2022/11/21 14:36:53;;;;;;;;;;;8.60;99.90;;;;;;5052574;28;20022;-62
2022/11/21 14:39:23;;;;;;;;;;;8.60;99.90;;;;;;5052679;28;19968;-62
2022/11/21 14:42:12;;;;;;;;;;;8.50;99.90;;;;;;5052568;28;19972;-62
2022/11/21 14:44:40;;;;;;;;;;;8.50;99.90;;;;;;5052570;28;19975;-62
2022/11/21 14:47:13;;;;;;;;;;;8.50;99.90;;;;;;5052684;28;19968;-62
2022/11/21 14:49:48;;;;;;;;;;;8.40;99.90;;;;;;5051888;28;20431;-62
2022/11/21 14:52:17;;;;;;;;;;;8.40;99.90;;;;;;5052131;28;19976;-62
2022/11/21 14:54:46;;;;;;;;;;;8.30;99.90;;;;;;5052402;28;19976;-62
2022/11/21 14:57:36;;;;;;;;;;;8.40;99.90;;;;;;5052401;28;19968;-62
2022/11/21 15:00:05;;;;;;;;;;;8.40;99.90;;;;;;5051923;28;19994;-62
2022/11/21 15:02:34;;;;;;;;;;;8.40;99.90;;;;;;5051859;28;20430;-62
2022/11/21 15:05:04;;;;;;;;;;;8.40;99.90;;;;;;5052070;28;20376;-62
2022/11/21 15:07:35;;;;;;;;;;;8.40;99.90;;;;;;5052220;28;19972;-62
2022/11/21 15:10:03;;;;;;;;;;;8.40;99.90;;;;;;5051533;28;19974;-62
2022/11/21 15:12:54;;;;;;;;;;;8.30;99.90;;;;;;5051809;28;19976;-62
2022/11/21 15:15:25;;;;;;;;;;;8.20;99.90;;;;;;5052177;28;19978;-62
2022/11/21 15:17:56;;;;;;;;;;;8.10;99.90;;;;;;5051963;28;20062;-62
2022/11/21 15:20:46;;;;;;;;;;;8.00;99.90;;;;;;5051086;28;20047;-63